sensor_id;sensor_type;location;lat;lon;timestamp;pressure;altitude;pressure_sealevel;temperature;humidity
46690;BME280;32423;45.398;10.874;2023-09-19T00:00:49;100422.91;;;21.15;78.45
46690;BME280;32423;45.398;10.874;2023-09-19T00:03:44;100426.06;;;21.31;78.43
46690;BME280;32423;45.398;10.874;2023-09-19T00:06:38;100425.69;;;21.33;77.85
46690;BME280;32423;45.398;10.874;2023-09-19T00:09:33;100422.91;;;21.37;78.37
46690;BME280;32423;45.398;10.874;2023-09-19T00:12:29;100429.63;;;21.50;77.27
46690;BME280;32423;45.398;10.874;2023-09-19T00:15:23;100435.94;;;21.61;76.47
46690;BME280;32423;45.398;10.874;2023-09-19T00:18:16;100433.59;;;21.63;75.16
46690;BME280;32423;45.398;10.874;2023-09-19T00:21:08;100427.25;;;21.34;75.65
46690;BME280;32423;45.398;10.874;2023-09-19T00:24:02;100430.41;;;21.15;77.18
46690;BME280;32423;45.398;10.874;2023-09-19T00:26:57;100426.38;;;20.98;78.25
46690;BME280;32423;45.398;10.874;2023-09-19T00:29:51;100430.34;;;20.90;78.78
46690;BME280;32423;45.398;10.874;2023-09-19T00:32:48;100427.16;;;20.88;79.31
46690;BME280;32423;45.398;10.874;2023-09-19T00:35:48;100422.03;;;20.90;79.10
46690;BME280;32423;45.398;10.874;2023-09-19T00:38:43;100418.09;;;20.91;79.08
46690;BME280;32423;45.398;10.874;2023-09-19T00:41:38;100415.72;;;20.93;79.21
46690;BME280;32423;45.398;10.874;2023-09-19T00:44:27;100409.03;;;21.01;78.93
46690;BME280;32423;45.398;10.874;2023-09-19T00:47:22;100411.00;;;20.90;79.13
46690;BME280;32423;45.398;10.874;2023-09-19T00:50:17;100421.63;;;20.84;79.54
46690;BME280;32423;45.398;10.874;2023-09-19T00:53:12;100405.44;;;20.79;79.98
46690;BME280;32423;45.398;10.874;2023-09-19T00:56:08;100403.09;;;20.92;79.94
46690;BME280;32423;45.398;10.874;2023-09-19T00:59:03;100396.38;;;20.93;79.25
46690;BME280;32423;45.398;10.874;2023-09-19T01:01:58;100394.03;;;21.06;78.72
46690;BME280;32423;45.398;10.874;2023-09-19T01:04:55;100396.38;;;20.86;79.08
46690;BME280;32423;45.398;10.874;2023-09-19T01:07:50;100391.25;;;20.95;78.45
46690;BME280;32423;45.398;10.874;2023-09-19T01:10:46;100391.63;;;20.76;79.88
46690;BME280;32423;45.398;10.874;2023-09-19T01:14:00;100386.13;;;21.01;79.10
46690;BME280;32423;45.398;10.874;2023-09-19T01:17:17;100391.66;;;21.04;78.72
46690;BME280;32423;45.398;10.874;2023-09-19T01:20:21;100397.97;;;21.05;79.07
46690;BME280;32423;45.398;10.874;2023-09-19T01:29:40;100408.25;;;20.97;79.19
46690;BME280;32423;45.398;10.874;2023-09-19T01:32:36;100402.31;;;20.99;78.77
46690;BME280;32423;45.398;10.874;2023-09-19T01:35:28;100406.25;;;21.05;78.54
46690;BME280;32423;45.398;10.874;2023-09-19T01:38:23;100397.97;;;21.08;78.54
46690;BME280;32423;45.398;10.874;2023-09-19T01:41:19;100396.00;;;21.12;77.97
46690;BME280;32423;45.398;10.874;2023-09-19T01:44:17;100395.66;;;21.21;77.93
46690;BME280;32423;45.398;10.874;2023-09-19T01:47:41;100407.78;;;20.67;81.28
46690;BME280;32423;45.398;10.874;2023-09-19T01:50:44;100403.41;;;20.55;82.30
46690;BME280;32423;45.398;10.874;2023-09-19T01:53:53;100411.69;;;20.59;82.60
46690;BME280;32423;45.398;10.874;2023-09-19T01:56:50;100416.00;;;20.45;83.36
46690;BME280;32423;45.398;10.874;2023-09-19T01:59:46;100409.69;;;20.41;83.32
46690;BME280;32423;45.398;10.874;2023-09-19T02:02:42;100413.19;;;20.31;83.69
46690;BME280;32423;45.398;10.874;2023-09-19T02:05:37;100411.06;;;20.07;83.90
46690;BME280;32423;45.398;10.874;2023-09-19T02:08:30;100416.06;;;19.87;84.83
46690;BME280;32423;45.398;10.874;2023-09-19T02:11:25;100410.25;;;20.06;84.78
46690;BME280;32423;45.398;10.874;2023-09-19T02:14:20;100414.28;;;20.16;85.09
46690;BME280;32423;45.398;10.874;2023-09-19T02:17:14;100407.91;;;20.05;84.55
46690;BME280;32423;45.398;10.874;2023-09-19T02:20:09;100409.44;;;19.95;84.82
46690;BME280;32423;45.398;10.874;2023-09-19T02:23:06;100415.47;;;20.19;84.52
46690;BME280;32423;45.398;10.874;2023-09-19T02:25:59;100417.84;;;20.20;83.65
46690;BME280;32423;45.398;10.874;2023-09-19T02:29:00;100413.22;;;20.42;81.82
46690;BME280;32423;45.398;10.874;2023-09-19T02:31:55;100407.09;;;20.01;83.51
46690;BME280;32423;45.398;10.874;2023-09-19T02:34:50;100408.75;;;20.16;83.93
46690;BME280;32423;45.398;10.874;2023-09-19T02:37:45;100409.00;;;19.90;84.18
46690;BME280;32423;45.398;10.874;2023-09-19T02:40:40;100408.44;;;19.67;85.37
46690;BME280;32423;45.398;10.874;2023-09-19T02:43:32;100413.28;;;19.80;85.99
46690;BME280;32423;45.398;10.874;2023-09-19T02:46:26;100404.81;;;20.21;83.54
46690;BME280;32423;45.398;10.874;2023-09-19T02:49:15;100405.72;;;20.35;82.03
46690;BME280;32423;45.398;10.874;2023-09-19T02:52:10;100413.50;;;20.19;82.53
46690;BME280;32423;45.398;10.874;2023-09-19T02:55:04;100404.50;;;19.68;85.49
46690;BME280;32423;45.398;10.874;2023-09-19T02:58:01;100406.91;;;19.73;85.93
46690;BME280;32423;45.398;10.874;2023-09-19T03:00:56;100407.84;;;19.98;85.11
46690;BME280;32423;45.398;10.874;2023-09-19T03:03:50;100414.28;;;20.20;83.51
46690;BME280;32423;45.398;10.874;2023-09-19T03:06:43;100413.53;;;20.26;82.98
46690;BME280;32423;45.398;10.874;2023-09-19T03:09:37;100408.72;;;20.09;82.71
46690;BME280;32423;45.398;10.874;2023-09-19T03:12:31;100421.81;;;20.30;83.35
46690;BME280;32423;45.398;10.874;2023-09-19T03:15:26;100420.34;;;20.50;80.56
46690;BME280;32423;45.398;10.874;2023-09-19T03:18:21;100414.44;;;20.52;78.89
46690;BME280;32423;45.398;10.874;2023-09-19T03:21:15;100416.75;;;20.35;80.23
46690;BME280;32423;45.398;10.874;2023-09-19T03:24:10;100416.75;;;20.39;80.53
46690;BME280;32423;45.398;10.874;2023-09-19T03:27:08;100418.28;;;20.29;81.76
46690;BME280;32423;45.398;10.874;2023-09-19T03:30:02;100413.38;;;19.98;82.79
46690;BME280;32423;45.398;10.874;2023-09-19T03:32:59;100416.19;;;20.08;83.77
46690;BME280;32423;45.398;10.874;2023-09-19T03:35:56;100407.19;;;20.22;82.46
46690;BME280;32423;45.398;10.874;2023-09-19T03:38:51;100411.03;;;20.00;81.33
46690;BME280;32423;45.398;10.874;2023-09-19T03:41:43;100409.47;;;20.02;81.34
46690;BME280;32423;45.398;10.874;2023-09-19T03:44:38;100407.03;;;19.90;84.36
46690;BME280;32423;45.398;10.874;2023-09-19T03:47:30;100412.19;;;19.99;85.76
46690;BME280;32423;45.398;10.874;2023-09-19T03:50:25;100394.50;;;20.07;85.25
46690;BME280;32423;45.398;10.874;2023-09-19T03:53:19;100394.09;;;20.05;85.00
46690;BME280;32423;45.398;10.874;2023-09-19T03:56:13;100405.16;;;20.12;84.28
46690;BME280;32423;45.398;10.874;2023-09-19T03:59:05;100393.72;;;20.10;84.76
46690;BME280;32423;45.398;10.874;2023-09-19T04:02:00;100390.13;;;19.99;84.94
46690;BME280;32423;45.398;10.874;2023-09-19T04:04:55;100391.66;;;19.89;85.33
46690;BME280;32423;45.398;10.874;2023-09-19T04:07:49;100389.31;;;19.95;85.19
46690;BME280;32423;45.398;10.874;2023-09-19T04:10:44;100398.34;;;19.88;85.33
46690;BME280;32423;45.398;10.874;2023-09-19T04:13:40;100394.03;;;19.94;85.46
46690;BME280;32423;45.398;10.874;2023-09-19T04:16:34;100387.31;;;19.92;85.63
46690;BME280;32423;45.398;10.874;2023-09-19T04:19:30;100392.06;;;19.95;85.55
46690;BME280;32423;45.398;10.874;2023-09-19T04:22:24;100385.38;;;19.96;85.33
46690;BME280;32423;45.398;10.874;2023-09-19T04:25:19;100391.28;;;19.94;85.19
46690;BME280;32423;45.398;10.874;2023-09-19T04:28:14;100388.97;;;20.03;84.92
46690;BME280;32423;45.398;10.874;2023-09-19T04:31:08;100380.31;;;20.12;83.45
46690;BME280;32423;45.398;10.874;2023-09-19T04:34:03;100391.03;;;20.24;83.59
46690;BME280;32423;45.398;10.874;2023-09-19T04:36:57;100394.16;;;20.23;83.15
46690;BME280;32423;45.398;10.874;2023-09-19T04:39:52;100389.28;;;19.91;84.35
46690;BME280;32423;45.398;10.874;2023-09-19T04:42:47;100397.88;;;19.76;85.83
46690;BME280;32423;45.398;10.874;2023-09-19T04:45:44;100400.16;;;19.67;86.04
46690;BME280;32423;45.398;10.874;2023-09-19T04:48:36;100394.63;;;19.63;86.25
46690;BME280;32423;45.398;10.874;2023-09-19T04:51:31;100402.97;;;19.74;86.42
46690;BME280;32423;45.398;10.874;2023-09-19T04:54:23;100407.28;;;19.68;85.93
46690;BME280;32423;45.398;10.874;2023-09-19T04:57:18;100406.97;;;19.80;84.84
46690;BME280;32423;45.398;10.874;2023-09-19T05:00:17;100407.75;;;19.80;85.39
46690;BME280;32423;45.398;10.874;2023-09-19T05:03:11;100411.53;;;19.58;87.01
46690;BME280;32423;45.398;10.874;2023-09-19T05:06:06;100417.50;;;19.63;86.10
46690;BME280;32423;45.398;10.874;2023-09-19T05:09:01;100423.81;;;19.64;85.86
46690;BME280;32423;45.398;10.874;2023-09-19T05:11:55;100419.41;;;19.56;86.47
46690;BME280;32423;45.398;10.874;2023-09-19T05:14:48;100424.00;;;19.41;86.94
46690;BME280;32423;45.398;10.874;2023-09-19T05:17:47;100438.69;;;19.52;86.59
46690;BME280;32423;45.398;10.874;2023-09-19T05:20:42;100435.88;;;20.03;85.65
46690;BME280;32423;45.398;10.874;2023-09-19T05:23:37;100442.34;;;20.29;82.58
46690;BME280;32423;45.398;10.874;2023-09-19T05:26:32;100449.09;;;20.31;82.77
46690;BME280;32423;45.398;10.874;2023-09-19T05:29:26;100447.16;;;20.42;81.98
46690;BME280;32423;45.398;10.874;2023-09-19T05:32:20;100453.59;;;20.71;81.09
46690;BME280;32423;45.398;10.874;2023-09-19T05:35:15;100461.47;;;20.66;79.78
46690;BME280;32423;45.398;10.874;2023-09-19T05:38:11;100466.19;;;20.62;80.81
46690;BME280;32423;45.398;10.874;2023-09-19T05:41:05;100465.00;;;20.63;80.67
46690;BME280;32423;45.398;10.874;2023-09-19T05:43:57;100461.53;;;20.87;80.60
46690;BME280;32423;45.398;10.874;2023-09-19T05:46:53;100472.91;;;20.64;80.57
46690;BME280;32423;45.398;10.874;2023-09-19T05:49:46;100481.56;;;20.56;81.39
46690;BME280;32423;45.398;10.874;2023-09-19T05:52:40;100488.34;;;20.76;80.64
46690;BME280;32423;45.398;10.874;2023-09-19T05:55:35;100493.50;;;20.84;80.32
46690;BME280;32423;45.398;10.874;2023-09-19T05:58:30;100488.03;;;21.06;79.86
46690;BME280;32423;45.398;10.874;2023-09-19T06:01:25;100493.63;;;21.16;78.39
46690;BME280;32423;45.398;10.874;2023-09-19T06:04:19;100504.75;;;21.48;77.20
46690;BME280;32423;45.398;10.874;2023-09-19T06:07:12;100500.78;;;21.74;75.42
46690;BME280;32423;45.398;10.874;2023-09-19T06:10:07;100507.50;;;21.84;74.14
46690;BME280;32423;45.398;10.874;2023-09-19T06:13:02;100500.81;;;21.99;73.96
46690;BME280;32423;45.398;10.874;2023-09-19T06:15:58;100501.56;;;22.13;72.90
46690;BME280;32423;45.398;10.874;2023-09-19T06:18:54;100503.13;;;22.22;72.07
46690;BME280;32423;45.398;10.874;2023-09-19T06:21:46;100503.94;;;22.11;71.90
46690;BME280;32423;45.398;10.874;2023-09-19T06:24:40;100505.50;;;22.27;71.64
46690;BME280;32423;45.398;10.874;2023-09-19T06:27:34;100511.81;;;22.31;71.66
46690;BME280;32423;45.398;10.874;2023-09-19T06:30:29;100515.34;;;22.42;71.17
46690;BME280;32423;45.398;10.874;2023-09-19T06:33:22;100514.16;;;22.50;70.72
46690;BME280;32423;45.398;10.874;2023-09-19T06:36:17;100514.00;;;22.89;70.40
46690;BME280;32423;45.398;10.874;2023-09-19T06:39:11;100511.25;;;23.55;68.30
46690;BME280;32423;45.398;10.874;2023-09-19T06:42:06;100517.75;;;23.85;67.11
46690;BME280;32423;45.398;10.874;2023-09-19T06:45:00;100514.88;;;23.96;66.97
46690;BME280;32423;45.398;10.874;2023-09-19T06:47:55;100517.84;;;24.16;66.13
46690;BME280;32423;45.398;10.874;2023-09-19T06:50:50;100513.91;;;24.17;66.41
46690;BME280;32423;45.398;10.874;2023-09-19T06:53:42;100519.38;;;24.61;65.64
46690;BME280;32423;45.398;10.874;2023-09-19T06:56:36;100517.34;;;24.65;65.28
46690;BME280;32423;45.398;10.874;2023-09-19T06:59:28;100518.69;;;24.50;65.32
46690;BME280;32423;45.398;10.874;2023-09-19T07:02:23;100510.97;;;24.68;65.15
46690;BME280;32423;45.398;10.874;2023-09-19T07:05:17;100519.81;;;25.21;62.63
46690;BME280;32423;45.398;10.874;2023-09-19T07:08:12;100515.66;;;25.32;62.16
46690;BME280;32423;45.398;10.874;2023-09-19T07:11:07;100520.03;;;25.60;60.17
46690;BME280;32423;45.398;10.874;2023-09-19T07:14:02;100513.44;;;25.20;60.29
46690;BME280;32423;45.398;10.874;2023-09-19T07:16:57;100528.09;;;25.78;58.17
46690;BME280;32423;45.398;10.874;2023-09-19T07:19:48;100524.97;;;25.99;58.01
46690;BME280;32423;45.398;10.874;2023-09-19T07:22:43;100530.69;;;26.12;58.04
46690;BME280;32423;45.398;10.874;2023-09-19T07:25:37;100537.19;;;26.28;56.50
46690;BME280;32423;45.398;10.874;2023-09-19T07:28:32;100537.50;;;26.34;55.73
46690;BME280;32423;45.398;10.874;2023-09-19T07:31:27;100538.63;;;26.13;55.10
46690;BME280;32423;45.398;10.874;2023-09-19T07:34:19;100536.59;;;26.60;54.32
46690;BME280;32423;45.398;10.874;2023-09-19T07:37:13;100550.38;;;26.67;53.14
46690;BME280;32423;45.398;10.874;2023-09-19T07:40:06;100546.78;;;26.90;52.63
46690;BME280;32423;45.398;10.874;2023-09-19T07:42:58;100542.31;;;26.93;52.04
46690;BME280;32423;45.398;10.874;2023-09-19T07:45:56;100545.09;;;26.73;51.99
46690;BME280;32423;45.398;10.874;2023-09-19T07:48:49;100568.44;;;27.22;50.23
46690;BME280;32423;45.398;10.874;2023-09-19T07:51:41;100563.19;;;26.85;50.63
46690;BME280;32423;45.398;10.874;2023-09-19T07:54:35;100569.56;;;27.24;49.78
46690;BME280;32423;45.398;10.874;2023-09-19T07:57:30;100570.06;;;27.19;50.30
46690;BME280;32423;45.398;10.874;2023-09-19T08:00:26;100569.44;;;27.12;49.53
46690;BME280;32423;45.398;10.874;2023-09-19T08:03:20;100574.63;;;27.65;48.47
46690;BME280;32423;45.398;10.874;2023-09-19T08:06:15;100577.44;;;27.65;48.63
46690;BME280;32423;45.398;10.874;2023-09-19T08:09:07;100577.50;;;28.11;48.12
46690;BME280;32423;45.398;10.874;2023-09-19T08:12:00;100575.94;;;27.61;49.14
46690;BME280;32423;45.398;10.874;2023-09-19T08:14:58;100581.19;;;27.39;49.37
46690;BME280;32423;45.398;10.874;2023-09-19T08:17:48;100582.16;;;28.01;47.91
46690;BME280;32423;45.398;10.874;2023-09-19T08:20:42;100587.50;;;28.12;48.07
46690;BME280;32423;45.398;10.874;2023-09-19T08:23:34;100587.91;;;28.26;47.45
46690;BME280;32423;45.398;10.874;2023-09-19T08:26:30;100591.00;;;28.61;46.92
46690;BME280;32423;45.398;10.874;2023-09-19T08:29:25;100601.31;;;28.64;46.48
46690;BME280;32423;45.398;10.874;2023-09-19T08:32:17;100591.94;;;28.99;45.98
46690;BME280;32423;45.398;10.874;2023-09-19T08:35:11;100604.59;;;28.46;47.04
46690;BME280;32423;45.398;10.874;2023-09-19T08:38:03;100607.09;;;28.57;46.00
46690;BME280;32423;45.398;10.874;2023-09-19T08:40:59;100599.53;;;28.25;46.38
46690;BME280;32423;45.398;10.874;2023-09-19T08:43:53;100607.38;;;28.46;45.58
46690;BME280;32423;45.398;10.874;2023-09-19T08:46:46;100601.09;;;27.05;48.81
46690;BME280;32423;45.398;10.874;2023-09-19T08:49:53;100601.41;;;26.25;51.56
46690;BME280;32423;45.398;10.874;2023-09-19T08:52:53;100600.78;;;25.64;54.12
46690;BME280;32423;45.398;10.874;2023-09-19T08:55:44;100597.59;;;25.31;55.93
46690;BME280;32423;45.398;10.874;2023-09-19T08:58:49;100591.69;;;24.99;57.35
46690;BME280;32423;45.398;10.874;2023-09-19T09:01:45;100599.81;;;24.79;57.60
46690;BME280;32423;45.398;10.874;2023-09-19T09:04:41;100605.50;;;24.68;58.43
46690;BME280;32423;45.398;10.874;2023-09-19T09:07:35;100600.81;;;24.58;58.22
46690;BME280;32423;45.398;10.874;2023-09-19T09:10:31;100606.28;;;24.69;58.70
46690;BME280;32423;45.398;10.874;2023-09-19T09:13:26;100607.63;;;24.57;59.16
46690;BME280;32423;45.398;10.874;2023-09-19T09:16:21;100599.97;;;24.65;59.12
46690;BME280;32423;45.398;10.874;2023-09-19T09:19:15;100595.16;;;24.69;58.92
46690;BME280;32423;45.398;10.874;2023-09-19T09:22:15;100595.25;;;24.58;59.30
46690;BME280;32423;45.398;10.874;2023-09-19T09:25:10;100600.97;;;24.48;60.27
46690;BME280;32423;45.398;10.874;2023-09-19T09:28:04;100607.78;;;24.40;60.40
46690;BME280;32423;45.398;10.874;2023-09-19T09:30:57;100608.88;;;24.49;60.24
46690;BME280;32423;45.398;10.874;2023-09-19T09:33:55;100600.13;;;24.51;60.37
46690;BME280;32423;45.398;10.874;2023-09-19T09:36:50;100610.41;;;24.54;60.34
46690;BME280;32423;45.398;10.874;2023-09-19T09:39:42;100616.06;;;24.43;60.73
46690;BME280;32423;45.398;10.874;2023-09-19T09:42:43;100614.47;;;24.46;60.76
46690;BME280;32423;45.398;10.874;2023-09-19T09:45:38;100610.75;;;24.59;60.12
46690;BME280;32423;45.398;10.874;2023-09-19T09:48:37;100611.53;;;24.63;60.45
46690;BME280;32423;45.398;10.874;2023-09-19T09:51:34;100611.13;;;24.61;60.35
46690;BME280;32423;45.398;10.874;2023-09-19T09:54:31;100604.41;;;24.59;60.42
46690;BME280;32423;45.398;10.874;2023-09-19T09:57:28;100602.50;;;24.52;60.36
46690;BME280;32423;45.398;10.874;2023-09-19T10:00:18;100603.19;;;24.63;60.09
46690;BME280;32423;45.398;10.874;2023-09-19T10:03:22;100596.25;;;24.79;59.36
46690;BME280;32423;45.398;10.874;2023-09-19T10:06:24;100603.47;;;24.73;59.96
46690;BME280;32423;45.398;10.874;2023-09-19T10:09:16;100596.41;;;24.64;60.15
46690;BME280;32423;45.398;10.874;2023-09-19T10:12:13;100589.59;;;24.69;60.33
46690;BME280;32423;45.398;10.874;2023-09-19T10:15:11;100591.22;;;24.66;61.00
46690;BME280;32423;45.398;10.874;2023-09-19T10:18:12;100595.13;;;24.73;60.38
46690;BME280;32423;45.398;10.874;2023-09-19T10:21:07;100594.28;;;24.76;60.21
46690;BME280;32423;45.398;10.874;2023-09-19T10:24:03;100598.72;;;24.73;60.53
46690;BME280;32423;45.398;10.874;2023-09-19T10:27:01;100602.97;;;24.81;60.37
46690;BME280;32423;45.398;10.874;2023-09-19T10:29:53;100595.50;;;24.75;60.21
46690;BME280;32423;45.398;10.874;2023-09-19T10:32:49;100601.56;;;24.66;60.69
46690;BME280;32423;45.398;10.874;2023-09-19T10:35:51;100604.28;;;24.69;60.73
46690;BME280;32423;45.398;10.874;2023-09-19T10:38:47;100593.03;;;24.84;60.14
46690;BME280;32423;45.398;10.874;2023-09-19T10:41:43;100590.31;;;24.77;59.93
46690;BME280;32423;45.398;10.874;2023-09-19T10:44:47;100599.84;;;24.76;60.05
46690;BME280;32423;45.398;10.874;2023-09-19T10:47:46;100597.00;;;24.83;59.91
46690;BME280;32423;45.398;10.874;2023-09-19T10:51:08;100590.13;;;24.94;59.08
46690;BME280;32423;45.398;10.874;2023-09-19T10:54:08;100587.34;;;24.94;59.11
46690;BME280;32423;45.398;10.874;2023-09-19T10:57:06;100583.88;;;24.83;59.73
46690;BME280;32423;45.398;10.874;2023-09-19T11:00:06;100591.16;;;24.74;59.85
46690;BME280;32423;45.398;10.874;2023-09-19T11:06:16;100576.88;;;24.71;60.31
46690;BME280;32423;45.398;10.874;2023-09-19T11:09:11;100567.78;;;24.67;60.21
46690;BME280;32423;45.398;10.874;2023-09-19T11:12:13;100573.13;;;24.85;59.80
46690;BME280;32423;45.398;10.874;2023-09-19T11:21:43;100574.59;;;24.97;59.30
46690;BME280;32423;45.398;10.874;2023-09-19T11:24:46;100575.09;;;24.85;59.41
46690;BME280;32423;45.398;10.874;2023-09-19T11:31:44;100570.81;;;25.14;58.33
46690;BME280;32423;45.398;10.874;2023-09-19T11:34:46;100566.81;;;25.15;58.38
46690;BME280;32423;45.398;10.874;2023-09-19T11:40:38;100566.63;;;24.99;58.71
46690;BME280;32423;45.398;10.874;2023-09-19T11:43:32;100563.81;;;25.02;58.88
46690;BME280;32423;45.398;10.874;2023-09-19T11:46:27;100567.84;;;25.28;57.49
46690;BME280;32423;45.398;10.874;2023-09-19T11:49:28;100571.56;;;25.18;57.84
46690;BME280;32423;45.398;10.874;2023-09-19T11:52:21;100561.09;;;25.26;57.29
46690;BME280;32423;45.398;10.874;2023-09-19T11:55:16;100559.69;;;25.14;57.89
46690;BME280;32423;45.398;10.874;2023-09-19T11:58:12;100563.34;;;25.07;58.55
46690;BME280;32423;45.398;10.874;2023-09-19T12:01:09;100558.91;;;25.10;58.09
46690;BME280;32423;45.398;10.874;2023-09-19T12:04:13;100550.69;;;25.03;58.73
46690;BME280;32423;45.398;10.874;2023-09-19T12:07:05;100550.16;;;25.11;58.49
46690;BME280;32423;45.398;10.874;2023-09-19T12:10:09;100543.91;;;25.04;58.78
46690;BME280;32423;45.398;10.874;2023-09-19T12:13:04;100548.94;;;25.70;56.65
46690;BME280;32423;45.398;10.874;2023-09-19T12:15:59;100549.22;;;25.75;56.13
46690;BME280;32423;45.398;10.874;2023-09-19T12:18:51;100537.09;;;26.35;52.62
46690;BME280;32423;45.398;10.874;2023-09-19T12:21:50;100530.63;;;26.78;51.66
46690;BME280;32423;45.398;10.874;2023-09-19T12:24:48;100537.66;;;26.86;51.75
46690;BME280;32423;45.398;10.874;2023-09-19T12:27:47;100540.25;;;26.97;50.48
46690;BME280;32423;45.398;10.874;2023-09-19T12:30:43;100528.16;;;26.64;52.19
46690;BME280;32423;45.398;10.874;2023-09-19T12:33:37;100535.94;;;26.53;53.00
46690;BME280;32423;45.398;10.874;2023-09-19T12:36:32;100527.75;;;26.22;53.58
46690;BME280;32423;45.398;10.874;2023-09-19T12:39:27;100524.91;;;26.26;53.95
46690;BME280;32423;45.398;10.874;2023-09-19T12:42:22;100528.91;;;27.04;48.87
46690;BME280;32423;45.398;10.874;2023-09-19T12:45:16;100521.34;;;26.85;50.58
46690;BME280;32423;45.398;10.874;2023-09-19T12:51:18;100532.13;;;26.00;54.24
46690;BME280;32423;45.398;10.874;2023-09-19T12:54:14;100526.25;;;26.37;52.52
46690;BME280;32423;45.398;10.874;2023-09-19T12:57:09;100527.13;;;26.34;51.55
46690;BME280;32423;45.398;10.874;2023-09-19T13:00:15;100520.66;;;25.94;55.16
46690;BME280;32423;45.398;10.874;2023-09-19T13:06:17;100522.34;;;26.94;53.25
46690;BME280;32423;45.398;10.874;2023-09-19T13:09:30;100522.06;;;26.29;55.45
46690;BME280;32423;45.398;10.874;2023-09-19T13:12:40;100513.75;;;26.03;55.02
46690;BME280;32423;45.398;10.874;2023-09-19T13:15:55;100515.97;;;26.11;52.59
46690;BME280;32423;45.398;10.874;2023-09-19T13:18:56;100510.22;;;26.22;54.63
46690;BME280;32423;45.398;10.874;2023-09-19T13:21:46;100510.75;;;26.36;53.87
46690;BME280;32423;45.398;10.874;2023-09-19T13:24:38;100516.31;;;26.36;51.18
46690;BME280;32423;45.398;10.874;2023-09-19T13:27:33;100513.06;;;26.18;54.47
46690;BME280;32423;45.398;10.874;2023-09-19T13:30:25;100506.34;;;26.16;54.08
46690;BME280;32423;45.398;10.874;2023-09-19T13:33:20;100507.75;;;25.81;54.78
46690;BME280;32423;45.398;10.874;2023-09-19T13:36:14;100510.22;;;25.75;54.36
46690;BME280;32423;45.398;10.874;2023-09-19T13:39:09;100510.22;;;26.22;50.79
46690;BME280;32423;45.398;10.874;2023-09-19T13:42:04;100509.75;;;26.86;48.24
46690;BME280;32423;45.398;10.874;2023-09-19T13:44:56;100506.25;;;27.18;47.83
46690;BME280;32423;45.398;10.874;2023-09-19T13:47:50;100500.72;;;27.34;45.46
46690;BME280;32423;45.398;10.874;2023-09-19T13:50:45;100484.25;;;27.88;45.78
46690;BME280;32423;45.398;10.874;2023-09-19T13:53:37;100505.31;;;26.69;49.16
46690;BME280;32423;45.398;10.874;2023-09-19T13:56:29;100510.09;;;26.29;51.29
46690;BME280;32423;45.398;10.874;2023-09-19T13:59:21;100494.59;;;26.48;51.23
46690;BME280;32423;45.398;10.874;2023-09-19T14:02:15;100505.66;;;26.31;52.11
46690;BME280;32423;45.398;10.874;2023-09-19T14:05:07;100510.53;;;26.47;50.89
46690;BME280;32423;45.398;10.874;2023-09-19T14:08:04;100505.53;;;26.58;50.66
46690;BME280;32423;45.398;10.874;2023-09-19T14:10:58;100504.69;;;27.01;47.47
46690;BME280;32423;45.398;10.874;2023-09-19T14:13:53;100505.53;;;26.78;46.02
46690;BME280;32423;45.398;10.874;2023-09-19T14:16:47;100505.31;;;27.24;46.97
46690;BME280;32423;45.398;10.874;2023-09-19T14:19:40;100504.72;;;27.17;44.32
46690;BME280;32423;45.398;10.874;2023-09-19T14:22:34;100498.13;;;26.91;47.72
46690;BME280;32423;45.398;10.874;2023-09-19T14:25:26;100504.47;;;26.52;47.38
46690;BME280;32423;45.398;10.874;2023-09-19T14:28:19;100507.97;;;26.96;46.69
46690;BME280;32423;45.398;10.874;2023-09-19T14:31:20;100503.25;;;26.73;47.65
46690;BME280;32423;45.398;10.874;2023-09-19T14:34:14;100504.31;;;26.59;47.35
46690;BME280;32423;45.398;10.874;2023-09-19T14:37:09;100506.03;;;26.33;48.25
46690;BME280;32423;45.398;10.874;2023-09-19T14:40:01;100499.81;;;26.65;43.36
46690;BME280;32423;45.398;10.874;2023-09-19T14:42:58;100503.44;;;27.54;42.79
46690;BME280;32423;45.398;10.874;2023-09-19T14:45:50;100504.94;;;27.58;40.42
46690;BME280;32423;45.398;10.874;2023-09-19T14:48:45;100502.06;;;27.62;40.56
46690;BME280;32423;45.398;10.874;2023-09-19T14:51:42;100507.56;;;27.49;41.03
46690;BME280;32423;45.398;10.874;2023-09-19T14:54:35;100501.59;;;26.95;45.17
46690;BME280;32423;45.398;10.874;2023-09-19T14:57:27;100504.63;;;26.65;46.62
46690;BME280;32423;45.398;10.874;2023-09-19T15:00:20;100508.53;;;26.67;45.34
46690;BME280;32423;45.398;10.874;2023-09-19T15:03:12;100502.47;;;26.53;47.45
46690;BME280;32423;45.398;10.874;2023-09-19T15:06:13;100498.72;;;26.79;44.69
46690;BME280;32423;45.398;10.874;2023-09-19T15:09:07;100505.00;;;27.22;39.91
46690;BME280;32423;45.398;10.874;2023-09-19T15:12:03;100513.78;;;27.21;41.87
46690;BME280;32423;45.398;10.874;2023-09-19T15:14:56;100506.06;;;27.09;40.76
46690;BME280;32423;45.398;10.874;2023-09-19T15:18:30;100501.88;;;26.81;43.80
46690;BME280;32423;45.398;10.874;2023-09-19T15:21:25;100507.50;;;26.61;42.79
46690;BME280;32423;45.398;10.874;2023-09-19T15:24:15;100503.03;;;26.64;43.84
46690;BME280;32423;45.398;10.874;2023-09-19T15:27:07;100511.06;;;27.01;40.98
46690;BME280;32423;45.398;10.874;2023-09-19T15:30:02;100514.59;;;27.38;39.88
46690;BME280;32423;45.398;10.874;2023-09-19T15:32:57;100519.72;;;27.23;40.67
46690;BME280;32423;45.398;10.874;2023-09-19T15:35:49;100526.25;;;27.52;39.14